Coos Bay, Oregon
Current Conditions -  °F | °C
As of 12:55 AM on Saturday 29 Nov 2014 (Local Time) from KOTH Reporting Station
Overcast Overcast  
Wind Chill: 50°   Ceiling: 2900
Heat Index: 50°   Visibility: 10mi
Dew Point: 45°   Wind: 9mph
Humidity: 82%   Direction: 320°NW
Pressure: 29.74"   Gusts: NA
Location:  43.37°N, 124.21°W
Report Text: KOTH 290855Z 32008KT 10SM OVC029 10/07 A2974 RMK AO1 60002 52014
Loading
Personal Weather Stations






























Interactive Weather Map New forecast layout! Learn more

10-Day Weather Forecast

Advertisements
Track Severe Weather on mobile